createdAt,value
2023-03-15T00:01:10.296Z,90.70
2023-03-15T00:03:37.535Z,90.60
2023-03-15T00:06:05.273Z,90.60
2023-03-15T00:08:35.699Z,90.60
2023-03-15T00:11:03.014Z,90.60
2023-03-15T00:13:31.067Z,90.60
2023-03-15T00:16:01.064Z,90.70
2023-03-15T00:18:28.877Z,90.80
2023-03-15T00:20:56.472Z,90.70
2023-03-15T00:23:23.872Z,90.70
2023-03-15T00:25:52.817Z,90.80
2023-03-15T00:28:20.727Z,91.00
2023-03-15T00:30:48.116Z,91.10
2023-03-15T00:33:15.723Z,91.20
2023-03-15T00:35:45.151Z,91.30
2023-03-15T00:38:14.220Z,91.20
2023-03-15T00:40:41.554Z,91.40
2023-03-15T00:43:08.728Z,91.50
2023-03-15T00:45:36.567Z,91.30
2023-03-15T00:48:03.843Z,91.30
2023-03-15T00:50:30.965Z,91.40
2023-03-15T00:52:58.081Z,91.60
2023-03-15T00:55:25.348Z,91.60
2023-03-15T00:57:52.630Z,91.70
2023-03-15T01:00:25.058Z,91.80
2023-03-15T01:02:53.868Z,91.80
2023-03-15T01:05:21.934Z,91.80
2023-03-15T01:07:49.499Z,92.10
2023-03-15T01:10:17.908Z,92.30
2023-03-15T01:12:45.966Z,92.70
2023-03-15T01:15:16.147Z,95.20
2023-03-15T01:17:43.929Z,97.40
2023-03-15T01:20:14.392Z,99.80
2023-03-15T01:22:41.783Z,99.90
2023-03-15T01:25:09.604Z,99.90
2023-03-15T01:27:37.558Z,99.90
2023-03-15T01:30:06.387Z,99.90
2023-03-15T01:32:33.993Z,99.90
2023-03-15T01:35:01.073Z,99.90
2023-03-15T01:37:28.236Z,99.90
2023-03-15T01:39:55.584Z,99.90
2023-03-15T01:42:22.701Z,99.90
2023-03-15T01:44:57.896Z,99.90
2023-03-15T01:47:26.514Z,99.90
2023-03-15T01:50:11.489Z,99.90
2023-03-15T01:52:41.516Z,99.90
2023-03-15T01:55:14.413Z,99.90
2023-03-15T01:57:56.758Z,99.90
2023-03-15T02:00:24.369Z,99.90
2023-03-15T02:03:08.112Z,99.90
2023-03-15T02:05:46.164Z,99.90
2023-03-15T02:08:16.089Z,99.90
2023-03-15T02:10:50.845Z,99.90
2023-03-15T02:13:24.690Z,99.90
2023-03-15T02:15:53.701Z,99.90
2023-03-15T02:18:21.752Z,99.90
2023-03-15T02:21:19.167Z,99.90
2023-03-15T02:24:01.442Z,99.90
2023-03-15T02:26:51.940Z,99.90
2023-03-15T02:29:19.504Z,99.90
2023-03-15T02:31:46.681Z,99.90
2023-03-15T02:34:13.831Z,99.90
2023-03-15T02:36:40.923Z,99.90
2023-03-15T02:39:20.775Z,99.90
2023-03-15T02:42:01.943Z,99.90
2023-03-15T02:44:39.632Z,99.90
2023-03-15T02:47:20.447Z,99.90
2023-03-15T02:49:53.810Z,99.90
2023-03-15T02:52:23.025Z,99.90
2023-03-15T02:54:50.860Z,99.90
2023-03-15T02:57:20.605Z,99.90
2023-03-15T02:59:51.020Z,99.90
2023-03-15T03:02:19.334Z,99.90
2023-03-15T03:04:46.542Z,99.90
2023-03-15T03:07:14.153Z,99.90
2023-03-15T03:09:41.281Z,99.90
2023-03-15T03:12:08.393Z,99.90
2023-03-15T03:14:35.478Z,99.90
2023-03-15T03:17:02.726Z,99.90
2023-03-15T03:19:29.884Z,99.90
2023-03-15T03:21:57.522Z,99.90
2023-03-15T03:24:25.929Z,99.90
2023-03-15T03:26:57.779Z,99.90
2023-03-15T03:29:26.322Z,99.90
2023-03-15T03:31:53.494Z,99.90
2023-03-15T03:34:20.839Z,99.90
2023-03-15T03:36:48.751Z,99.90
2023-03-15T03:39:15.926Z,99.90
2023-03-15T03:41:43.110Z,99.90
2023-03-15T03:44:10.296Z,99.90
2023-03-15T03:46:37.501Z,99.90
2023-03-15T03:49:04.688Z,99.90
2023-03-15T03:51:34.101Z,99.90
2023-03-15T03:54:04.798Z,99.90
2023-03-15T03:56:31.984Z,99.90
2023-03-15T03:58:59.070Z,99.90
2023-03-15T04:01:26.238Z,99.90
2023-03-15T04:03:53.450Z,99.90
2023-03-15T04:06:22.577Z,99.90
2023-03-15T04:08:49.843Z,99.90
2023-03-15T04:11:18.686Z,99.90
2023-03-15T04:13:45.829Z,99.90
2023-03-15T04:16:14.674Z,99.90
2023-03-15T04:18:41.945Z,99.90
2023-03-15T04:21:10.901Z,99.90
2023-03-15T04:23:38.624Z,99.90
2023-03-15T04:26:06.127Z,99.90
2023-03-15T04:28:33.411Z,99.90
2023-03-15T04:31:00.618Z,99.90
2023-03-15T04:33:29.013Z,99.90
2023-03-15T04:35:57.443Z,99.90
2023-03-15T04:38:26.831Z,99.90
2023-03-15T04:40:55.075Z,99.90
2023-03-15T04:43:24.440Z,99.90
2023-03-15T04:45:51.839Z,99.90
2023-03-15T04:48:18.936Z,99.90
2023-03-15T04:53:14.473Z,99.90
2023-03-15T04:55:41.610Z,99.90
2023-03-15T04:58:08.686Z,99.90
2023-03-15T05:00:35.903Z,99.90
2023-03-15T05:03:03.089Z,99.90
2023-03-15T05:05:33.426Z,99.90
2023-03-15T05:08:01.151Z,99.90
2023-03-15T05:10:29.896Z,99.90
2023-03-15T05:12:57.210Z,99.90
2023-03-15T05:15:24.323Z,99.90
2023-03-15T05:17:55.076Z,99.90
2023-03-15T05:20:23.235Z,99.90
2023-03-15T05:22:50.322Z,99.90
2023-03-15T05:25:17.542Z,99.90
2023-03-15T05:27:46.461Z,99.90
2023-03-15T05:30:15.756Z,99.90
2023-03-15T05:32:44.719Z,99.90
2023-03-15T05:35:13.064Z,99.90
2023-03-15T05:37:40.321Z,99.90
2023-03-15T05:40:08.944Z,99.90
2023-03-15T05:42:36.257Z,99.90
2023-03-15T05:45:03.435Z,99.90
2023-03-15T05:47:32.053Z,99.90
2023-03-15T05:50:00.339Z,99.90
2023-03-15T05:52:27.522Z,99.80
2023-03-15T05:54:54.674Z,99.70
2023-03-15T05:57:21.821Z,99.60
2023-03-15T05:59:48.979Z,99.50
2023-03-15T06:02:16.086Z,99.40
2023-03-15T06:04:43.227Z,99.20
2023-03-15T06:07:10.497Z,99.10
2023-03-15T06:09:37.666Z,98.70
2023-03-15T06:12:05.677Z,99.90
2023-03-15T06:14:32.776Z,99.90
2023-03-15T06:16:59.996Z,98.70
2023-03-15T06:19:27.209Z,98.40
2023-03-15T06:21:54.338Z,98.00
2023-03-15T06:24:21.425Z,97.90
2023-03-15T06:26:48.516Z,98.10
2023-03-15T06:29:17.211Z,97.70
2023-03-15T06:31:44.399Z,97.70
2023-03-15T06:34:11.936Z,97.70
2023-03-15T06:36:39.068Z,97.70
2023-03-15T06:39:06.156Z,97.40
2023-03-15T06:41:33.273Z,97.20
2023-03-15T06:44:00.472Z,97.00
2023-03-15T06:46:27.629Z,96.80
2023-03-15T06:48:54.842Z,96.70
2023-03-15T06:51:22.551Z,96.20
2023-03-15T06:53:49.735Z,96.10
2023-03-15T06:56:16.956Z,95.90
2023-03-15T06:58:44.206Z,95.80
2023-03-15T07:01:14.982Z,95.70
2023-03-15T07:03:42.674Z,95.80
2023-03-15T07:06:10.047Z,95.30
2023-03-15T07:08:37.277Z,95.20
2023-03-15T07:11:04.997Z,95.30
2023-03-15T07:13:32.156Z,95.00
2023-03-15T07:15:59.517Z,95.00
2023-03-15T07:18:26.710Z,94.70
2023-03-15T07:20:58.921Z,94.00
2023-03-15T07:23:26.400Z,93.30
2023-03-15T07:25:55.626Z,93.50
2023-03-15T07:28:25.072Z,93.20
2023-03-15T07:31:04.082Z,93.00
2023-03-15T07:33:33.608Z,92.10
2023-03-15T07:36:04.364Z,92.00
2023-03-15T07:38:32.363Z,91.60
2023-03-15T07:41:02.810Z,91.10
2023-03-15T07:43:30.066Z,90.80
2023-03-15T07:45:57.247Z,90.50
2023-03-15T07:48:24.579Z,90.70
2023-03-15T07:50:51.820Z,90.20
2023-03-15T07:53:19.238Z,90.10
2023-03-15T07:55:48.611Z,90.10
2023-03-15T07:58:17.964Z,90.20
2023-03-15T08:00:47.348Z,89.30
2023-03-15T08:03:14.792Z,88.70
2023-03-15T08:05:42.062Z,88.70
2023-03-15T08:08:09.176Z,87.60
2023-03-15T08:10:36.321Z,87.00
2023-03-15T08:13:03.661Z,86.30
2023-03-15T08:15:30.811Z,85.90
2023-03-15T08:17:59.215Z,85.90
2023-03-15T08:20:29.419Z,83.50
2023-03-15T08:22:56.729Z,82.70
2023-03-15T08:25:25.158Z,82.20
2023-03-15T08:27:53.000Z,81.30
2023-03-15T08:30:21.722Z,80.50
2023-03-15T08:32:52.563Z,80.50
2023-03-15T08:35:22.598Z,80.90
2023-03-15T08:37:52.389Z,79.80
2023-03-15T08:40:24.078Z,79.40
2023-03-15T08:42:52.770Z,79.70
2023-03-15T08:45:20.263Z,80.20
2023-03-15T08:47:47.464Z,79.60
2023-03-15T08:50:16.849Z,79.60
2023-03-15T08:52:44.326Z,79.00
2023-03-15T08:55:14.450Z,78.30
2023-03-15T08:57:42.453Z,77.20
2023-03-15T09:00:15.296Z,76.80
2023-03-15T09:02:42.569Z,75.80
2023-03-15T09:05:12.030Z,75.30
2023-03-15T09:07:47.039Z,74.70
2023-03-15T09:10:17.498Z,75.10
2023-03-15T09:12:52.240Z,75.00
2023-03-15T09:15:19.687Z,73.80
2023-03-15T09:17:48.585Z,71.70
2023-03-15T09:20:16.888Z,70.10
2023-03-15T09:22:51.033Z,69.60
2023-03-15T09:25:19.698Z,68.40
2023-03-15T09:27:46.922Z,68.50
2023-03-15T09:30:14.988Z,68.10
2023-03-15T09:32:44.186Z,67.20
2023-03-15T09:35:16.917Z,65.70
2023-03-15T09:37:44.633Z,64.80
2023-03-15T09:40:31.190Z,64.20
2023-03-15T09:43:07.593Z,63.10
2023-03-15T09:46:02.751Z,60.90
2023-03-15T09:49:12.744Z,59.40
2023-03-15T09:52:09.181Z,59.10
2023-03-15T09:54:50.741Z,58.60
2023-03-15T09:57:44.219Z,59.10
2023-03-15T10:00:20.800Z,57.90
2023-03-15T10:03:06.994Z,58.50
2023-03-15T10:05:45.774Z,56.10
2023-03-15T10:08:17.464Z,56.80
2023-03-15T10:11:07.213Z,56.90
2023-03-15T10:13:55.839Z,57.40
2023-03-15T10:16:46.196Z,55.20
2023-03-15T10:19:44.637Z,53.90
2023-03-15T10:22:14.670Z,53.50
2023-03-15T10:24:55.434Z,52.70
2023-03-15T10:27:43.385Z,52.50
2023-03-15T10:30:27.364Z,52.40
2023-03-15T10:33:21.858Z,52.30
2023-03-15T10:35:51.013Z,52.50
2023-03-15T10:38:22.528Z,52.30
2023-03-15T10:40:54.090Z,50.50
2023-03-15T10:43:37.014Z,51.70
2023-03-15T10:46:24.644Z,51.10
2023-03-15T10:49:00.086Z,51.80
2023-03-15T10:51:37.600Z,51.10
2023-03-15T10:54:19.702Z,51.10
2023-03-15T10:57:17.336Z,50.30
2023-03-15T11:00:09.835Z,50.30
2023-03-15T11:02:37.761Z,50.00
2023-03-15T11:05:12.599Z,49.90
2023-03-15T11:07:55.986Z,48.70
2023-03-15T11:10:25.933Z,49.10
2023-03-15T11:13:21.200Z,47.90
2023-03-15T11:16:20.842Z,47.70
2023-03-15T11:18:58.004Z,47.30
2023-03-15T11:21:36.885Z,47.30
2023-03-15T11:24:06.960Z,45.50
2023-03-15T11:29:23.079Z,46.80
2023-03-15T11:31:52.281Z,48.50
2023-03-15T11:34:31.303Z,48.80
2023-03-15T11:37:08.823Z,48.90
2023-03-15T11:39:46.526Z,49.10
2023-03-15T11:42:29.030Z,48.50
2023-03-15T11:45:01.901Z,48.40
2023-03-15T11:48:22.322Z,49.20
2023-03-15T11:50:54.727Z,49.00
2023-03-15T11:53:28.089Z,49.90
2023-03-15T11:55:55.353Z,51.20
2023-03-15T11:58:28.039Z,50.60
2023-03-15T12:01:08.185Z,51.10
2023-03-15T12:03:44.646Z,51.10
2023-03-15T12:06:17.898Z,51.80
2023-03-15T12:08:52.526Z,51.40
2023-03-15T12:11:22.222Z,51.60
2023-03-15T12:14:00.980Z,52.00
2023-03-15T12:16:34.792Z,51.30
2023-03-15T12:19:25.282Z,51.50
2023-03-15T12:21:59.068Z,50.80
2023-03-15T12:24:36.061Z,50.10
2023-03-15T12:27:20.265Z,49.80
2023-03-15T12:29:57.711Z,48.90
2023-03-15T12:32:32.698Z,48.70
2023-03-15T12:35:16.082Z,48.10
2023-03-15T12:37:50.181Z,49.70
2023-03-15T12:40:20.516Z,50.10
2023-03-15T12:42:50.225Z,49.70
2023-03-15T12:45:20.517Z,49.70
2023-03-15T12:48:12.825Z,49.30
2023-03-15T12:50:56.251Z,50.30
2023-03-15T12:53:36.553Z,48.80
2023-03-15T12:56:18.792Z,50.00
2023-03-15T12:58:55.313Z,47.70
2023-03-15T13:01:25.839Z,47.30
2023-03-15T13:03:58.564Z,46.90
2023-03-15T13:07:14.002Z,46.90
2023-03-15T13:10:31.319Z,47.10
2023-03-15T13:13:30.156Z,47.20
2023-03-15T13:16:45.019Z,46.40
2023-03-15T13:19:27.165Z,45.90
2023-03-15T13:22:11.334Z,46.30
2023-03-15T13:25:04.643Z,44.50
2023-03-15T13:28:00.028Z,44.00
2023-03-15T13:30:42.669Z,44.50
2023-03-15T13:33:31.636Z,44.90
2023-03-15T13:36:17.327Z,44.60
2023-03-15T13:38:54.290Z,45.00
2023-03-15T13:41:30.380Z,44.60
2023-03-15T13:44:02.270Z,44.50
2023-03-15T13:46:31.530Z,45.20
2023-03-15T13:49:01.232Z,44.20
2023-03-15T13:51:36.252Z,44.40
2023-03-15T13:54:26.614Z,44.40
2023-03-15T13:57:16.465Z,43.80
2023-03-15T14:00:02.364Z,44.50
2023-03-15T14:02:57.067Z,44.90
2023-03-15T14:05:42.665Z,43.90
2023-03-15T14:08:31.959Z,44.00
2023-03-15T14:11:24.995Z,44.10
2023-03-15T14:13:59.365Z,44.20
2023-03-15T14:17:01.208Z,43.90
2023-03-15T14:19:34.046Z,43.00
2023-03-15T14:22:17.831Z,43.20
2023-03-15T14:24:50.107Z,42.30
2023-03-15T14:27:26.505Z,41.10
2023-03-15T14:30:01.152Z,41.80
2023-03-15T14:32:37.845Z,41.40
2023-03-15T14:35:20.100Z,41.40
2023-03-15T14:37:47.909Z,41.30
2023-03-15T14:40:22.937Z,41.40
2023-03-15T14:42:51.160Z,41.30
2023-03-15T14:45:20.380Z,41.50
2023-03-15T14:47:57.665Z,42.00
2023-03-15T14:50:31.073Z,42.70
2023-03-15T14:52:59.243Z,42.50
2023-03-15T14:55:34.950Z,43.30
2023-03-15T14:58:09.869Z,43.10
2023-03-15T15:00:37.009Z,42.10
2023-03-15T15:03:07.886Z,42.10
2023-03-15T15:05:36.185Z,42.40
2023-03-15T15:08:13.754Z,41.80
2023-03-15T15:10:44.019Z,42.70
2023-03-15T15:13:30.112Z,43.00
2023-03-15T15:15:58.331Z,43.30
2023-03-15T15:18:28.853Z,43.80
2023-03-15T15:20:58.562Z,44.30
2023-03-15T15:23:32.407Z,44.10
2023-03-15T15:26:06.734Z,44.20
2023-03-15T15:28:37.379Z,45.00
2023-03-15T15:31:08.371Z,44.00
2023-03-15T15:33:35.933Z,44.30
2023-03-15T15:36:03.513Z,45.00
2023-03-15T15:38:39.206Z,45.30
2023-03-15T15:41:13.088Z,45.80
2023-03-15T15:43:42.819Z,46.20
2023-03-15T15:48:40.658Z,46.10
2023-03-15T15:51:29.205Z,46.60
2023-03-15T15:54:02.349Z,46.70
2023-03-15T15:56:53.560Z,46.90
2023-03-15T15:59:20.832Z,47.40
2023-03-15T16:02:07.103Z,47.90
2023-03-15T16:04:34.186Z,48.10
2023-03-15T16:07:03.810Z,47.90
2023-03-15T16:09:36.301Z,47.70
2023-03-15T16:12:12.620Z,47.60
2023-03-15T16:14:40.517Z,48.00
2023-03-15T16:17:27.821Z,47.20
2023-03-15T16:19:55.513Z,47.80
2023-03-15T16:22:27.687Z,46.90
2023-03-15T16:24:58.487Z,46.30
2023-03-15T16:27:28.124Z,46.40
2023-03-15T16:29:56.570Z,46.50
2023-03-15T16:32:43.032Z,46.90
2023-03-15T16:35:25.852Z,47.30
2023-03-15T16:37:57.669Z,47.80
2023-03-15T16:40:35.548Z,48.00
2023-03-15T16:43:10.352Z,48.20
2023-03-15T16:45:39.028Z,48.50
2023-03-15T16:48:07.389Z,48.50
2023-03-15T16:50:37.848Z,49.00
2023-03-15T16:53:10.334Z,49.30
2023-03-15T16:55:40.595Z,49.40
2023-03-15T16:58:19.659Z,49.90
2023-03-15T17:00:48.730Z,50.00
2023-03-15T17:03:17.846Z,50.20
2023-03-15T17:05:48.953Z,50.20
2023-03-15T17:08:21.673Z,50.70
2023-03-15T17:10:50.407Z,51.00
2023-03-15T17:13:30.059Z,51.40
2023-03-15T17:16:01.799Z,51.90
2023-03-15T17:18:30.860Z,52.30
2023-03-15T17:21:00.814Z,52.20
2023-03-15T17:23:29.384Z,52.70
2023-03-15T17:25:57.831Z,52.80
2023-03-15T17:28:26.477Z,53.10
2023-03-15T17:31:08.957Z,53.40
2023-03-15T17:33:45.144Z,53.60
2023-03-15T17:36:21.999Z,53.60
2023-03-15T17:38:51.586Z,54.10
2023-03-15T17:41:30.374Z,54.20
2023-03-15T17:44:00.775Z,54.30
2023-03-15T17:46:34.189Z,54.40
2023-03-15T17:49:09.547Z,54.50
2023-03-15T17:51:39.042Z,54.50
2023-03-15T17:54:18.851Z,54.70
2023-03-15T17:56:48.854Z,55.00
2023-03-15T17:59:16.902Z,54.60
2023-03-15T18:01:49.397Z,55.40
2023-03-15T18:04:20.112Z,55.50
2023-03-15T18:06:48.947Z,55.90
2023-03-15T18:09:22.971Z,56.80
2023-03-15T18:11:55.547Z,60.30
2023-03-15T18:14:24.029Z,62.90
2023-03-15T18:16:54.023Z,64.70
2023-03-15T18:19:24.637Z,65.40
2023-03-15T18:21:54.147Z,65.90
2023-03-15T18:24:25.057Z,66.90
2023-03-15T18:26:56.131Z,66.80
2023-03-15T18:29:26.109Z,67.40
2023-03-15T18:31:57.280Z,67.70
2023-03-15T18:34:26.221Z,67.60
2023-03-15T18:36:54.592Z,67.90
2023-03-15T18:39:25.843Z,67.60
2023-03-15T18:41:54.756Z,66.90
2023-03-15T18:44:24.285Z,65.80
2023-03-15T18:46:54.453Z,65.80
2023-03-15T18:49:22.774Z,65.60
2023-03-15T18:51:55.358Z,64.20
2023-03-15T18:54:24.765Z,63.90
2023-03-15T18:56:54.200Z,63.70
2023-03-15T18:59:25.799Z,63.70
2023-03-15T19:01:54.821Z,64.30
2023-03-15T19:04:25.374Z,64.30
2023-03-15T19:06:55.720Z,64.70
2023-03-15T19:09:30.627Z,65.00
2023-03-15T19:12:00.163Z,65.20
2023-03-15T19:14:29.316Z,65.60
2023-03-15T19:16:58.691Z,65.70
2023-03-15T19:19:34.080Z,65.90
2023-03-15T19:22:04.180Z,66.10
2023-03-15T19:24:36.711Z,66.40
2023-03-15T19:27:08.133Z,66.70
2023-03-15T19:29:36.833Z,67.40
2023-03-15T19:32:07.649Z,67.80
2023-03-15T19:34:38.153Z,67.80
2023-03-15T19:37:06.596Z,68.00
2023-03-15T19:39:38.941Z,67.90
2023-03-15T19:42:10.486Z,68.10
2023-03-15T19:44:41.901Z,68.00
2023-03-15T19:47:11.043Z,68.00
2023-03-15T19:49:41.797Z,68.00
2023-03-15T19:52:12.133Z,67.80
2023-03-15T19:54:41.277Z,68.30
2023-03-15T19:57:10.395Z,68.40
2023-03-15T19:59:42.822Z,68.50
2023-03-15T20:02:13.789Z,68.70
2023-03-15T20:04:45.316Z,69.00
2023-03-15T20:07:14.237Z,69.20
2023-03-15T20:09:44.592Z,69.50
2023-03-15T20:12:16.067Z,70.00
2023-03-15T20:14:49.124Z,70.70
2023-03-15T20:17:21.040Z,71.10
2023-03-15T20:19:49.663Z,71.60
2023-03-15T20:22:18.521Z,72.30
2023-03-15T20:24:51.767Z,73.40
2023-03-15T20:27:21.207Z,73.40
2023-03-15T20:29:50.804Z,73.90
2023-03-15T20:32:19.616Z,74.50
2023-03-15T20:34:48.480Z,74.80
2023-03-15T20:37:17.364Z,75.40
2023-03-15T20:39:50.251Z,75.70
2023-03-15T20:42:22.446Z,76.30
2023-03-15T20:44:52.058Z,77.00
2023-03-15T20:47:25.221Z,77.50
2023-03-15T20:49:56.337Z,78.00
2023-03-15T20:52:26.745Z,78.60
2023-03-15T20:54:55.598Z,79.30
2023-03-15T20:57:28.370Z,79.60
2023-03-15T21:00:01.319Z,80.20
2023-03-15T21:02:30.310Z,81.20
2023-03-15T21:04:58.758Z,81.20
2023-03-15T21:07:28.660Z,81.80
2023-03-15T21:09:56.506Z,82.40
2023-03-15T21:12:26.385Z,83.20
2023-03-15T21:14:54.999Z,83.90
2023-03-15T21:17:23.685Z,84.70
2023-03-15T21:19:54.039Z,85.70
2023-03-15T21:22:22.273Z,86.60
2023-03-15T21:24:55.822Z,87.40
2023-03-15T21:27:26.730Z,88.10
2023-03-15T21:29:54.866Z,89.30
2023-03-15T21:32:22.954Z,90.20
2023-03-15T21:34:50.760Z,90.70
2023-03-15T21:37:20.255Z,91.20
2023-03-15T21:39:48.790Z,91.80
2023-03-15T21:42:16.777Z,92.50
2023-03-15T21:44:44.500Z,93.00
2023-03-15T21:47:15.188Z,93.70
2023-03-15T21:49:45.752Z,94.70
2023-03-15T21:52:16.297Z,95.50
2023-03-15T21:54:45.380Z,96.30
2023-03-15T21:57:13.432Z,97.20
2023-03-15T21:59:41.054Z,97.80
2023-03-15T22:02:10.099Z,98.60
2023-03-15T22:04:37.280Z,99.10
2023-03-15T22:07:04.435Z,99.90
2023-03-15T22:09:31.609Z,99.90
2023-03-15T22:11:58.871Z,99.90
2023-03-15T22:14:26.083Z,99.90
2023-03-15T22:16:53.301Z,99.90
2023-03-15T22:19:20.580Z,99.90
2023-03-15T22:21:47.755Z,99.90
2023-03-15T22:24:15.228Z,99.90
2023-03-15T22:26:45.283Z,99.90
2023-03-15T22:29:12.533Z,99.90
2023-03-15T22:31:39.645Z,99.90
2023-03-15T22:34:06.740Z,99.90
2023-03-15T22:36:33.886Z,99.90
2023-03-15T22:39:04.018Z,99.90
2023-03-15T22:41:31.163Z,99.90
2023-03-15T22:43:58.300Z,99.90
2023-03-15T22:46:26.179Z,99.90
2023-03-15T22:48:54.367Z,99.90
2023-03-15T22:51:21.966Z,99.90
2023-03-15T22:53:49.186Z,99.90
2023-03-15T22:56:16.932Z,99.90
2023-03-15T22:58:44.138Z,99.90
2023-03-15T23:01:11.356Z,99.90
2023-03-15T23:03:38.689Z,99.90
2023-03-15T23:06:06.091Z,99.90
2023-03-15T23:08:33.230Z,99.90
2023-03-15T23:11:00.400Z,99.90
2023-03-15T23:13:27.541Z,99.90
2023-03-15T23:15:54.774Z,99.90
2023-03-15T23:18:22.218Z,99.90
2023-03-15T23:20:49.618Z,99.90
2023-03-15T23:23:16.954Z,99.90
2023-03-15T23:25:45.943Z,99.90
2023-03-15T23:28:13.936Z,99.90
2023-03-15T23:30:41.175Z,99.90
2023-03-15T23:33:08.701Z,99.90
2023-03-15T23:35:35.967Z,99.90
2023-03-15T23:38:03.224Z,99.90
2023-03-15T23:40:30.411Z,99.90
2023-03-15T23:43:00.209Z,99.90
2023-03-15T23:45:30.103Z,99.90
2023-03-15T23:47:58.121Z,99.90
2023-03-15T23:50:26.765Z,99.90
2023-03-15T23:52:56.098Z,99.90
2023-03-15T23:55:24.284Z,99.90
2023-03-15T23:57:51.661Z,99.90
